Time;durP1;ratioP1;P1;durP2;ratioP2;P2;SDS_P1;SDS_P2;PMS_P1;PMS_P2;Temp;Humidity;BMP_temperature;BMP_pressure;BME280_temperature;BME280_humidity;BME280_pressure;Samples;Min_cycle;Max_cycle;Signal;HPM_P1;HPM_P2
2023/10/23 00:00:46;;;;;;;6.43;5.57;;;;;;;9.51;100.00;101186.63;4997340;28;20214;-47
2023/10/23 00:03:12;;;;;;;7.07;5.20;;;;;;;9.51;100.00;101192.78;5000722;28;20362;-48
2023/10/23 00:05:37;;;;;;;9.02;5.30;;;;;;;9.49;100.00;101185.88;5002603;28;20473;-47
2023/10/23 00:08:02;;;;;;;8.57;5.70;;;;;;;9.48;100.00;101194.78;4992834;28;20022;-47
2023/10/23 00:10:28;;;;;;;8.27;5.32;;;;;;;9.44;100.00;101192.34;4995823;28;20370;-47
2023/10/23 00:12:53;;;;;;;7.53;5.45;;;;;;;9.43;100.00;101195.09;5009339;28;20014;-47
2023/10/23 00:15:18;;;;;;;7.65;5.75;;;;;;;9.38;100.00;101200.69;4999073;28;20061;-47
2023/10/23 00:17:43;;;;;;;6.00;5.40;;;;;;;9.40;100.00;101203.25;4996510;28;20033;-47
2023/10/23 00:20:09;;;;;;;8.40;5.55;;;;;;;9.37;100.00;101204.28;4999811;28;20079;-48
2023/10/23 00:22:34;;;;;;;10.30;5.47;;;;;;;9.33;100.00;101200.16;5008558;28;20483;-48
2023/10/23 00:25:00;;;;;;;10.73;5.55;;;;;;;9.35;100.00;101203.53;4998294;28;20396;-47
2023/10/23 00:27:25;;;;;;;6.28;5.50;;;;;;;9.32;100.00;101197.59;4997726;28;20029;-48
2023/10/23 00:29:50;;;;;;;9.02;5.95;;;;;;;9.31;100.00;101194.09;4998344;28;20031;-47
2023/10/23 00:32:15;;;;;;;8.00;5.60;;;;;;;9.28;100.00;101198.75;4997481;28;20592;-47
2023/10/23 00:34:41;;;;;;;5.88;4.97;;;;;;;9.28;100.00;101204.06;5000305;28;20064;-47
2023/10/23 00:37:06;;;;;;;7.50;5.10;;;;;;;9.26;100.00;101202.34;4996175;28;20037;-48
2023/10/23 00:39:31;;;;;;;8.45;5.53;;;;;;;9.24;100.00;101209.56;5001392;28;20384;-47
2023/10/23 00:41:56;;;;;;;9.30;5.40;;;;;;;9.22;100.00;101211.44;5002742;28;20108;-45
2023/10/23 00:44:22;;;;;;;9.48;5.65;;;;;;;9.20;100.00;101204.56;5003885;28;20041;-45
2023/10/23 00:46:47;;;;;;;9.18;5.45;;;;;;;9.19;100.00;101209.00;4998854;28;20046;-47
2023/10/23 00:49:13;;;;;;;8.15;4.90;;;;;;;9.18;100.00;101207.31;5002123;28;20026;-47
2023/10/23 00:51:38;;;;;;;8.02;5.82;;;;;;;9.15;100.00;101214.59;4995456;28;20038;-47
2023/10/23 00:54:06;;;;;;;8.88;5.25;;;;;;;9.12;100.00;101215.63;4997610;28;20038;-47
2023/10/23 00:56:34;;;;;;;12.18;5.95;;;;;;;9.11;100.00;101213.09;4995538;28;20035;-47
2023/10/23 00:59:00;;;;;;;9.03;5.40;;;;;;;9.10;100.00;101216.69;4996915;28;20449;-47
2023/10/23 01:01:28;;;;;;;7.35;4.53;;;;;;;9.06;100.00;101221.34;4997891;28;20117;-47
2023/10/23 01:03:53;;;;;;;6.60;5.10;;;;;;;9.05;100.00;101220.47;4996844;28;20026;-48
2023/10/23 01:06:19;;;;;;;9.95;5.28;;;;;;;9.04;100.00;101221.44;4998443;28;20035;-47
2023/10/23 01:08:44;;;;;;;10.15;5.32;;;;;;;9.01;100.00;101220.78;4995345;28;20022;-48
2023/10/23 01:11:09;;;;;;;7.88;5.05;;;;;;;8.99;100.00;101230.63;4998809;28;20037;-46
2023/10/23 01:13:35;;;;;;;5.93;4.93;;;;;;;9.00;100.00;101240.28;4998391;28;20495;-45
2023/10/23 01:16:00;;;;;;;7.38;5.07;;;;;;;8.97;100.00;101236.03;4996049;28;20038;-45
2023/10/23 01:18:25;;;;;;;8.38;5.38;;;;;;;8.96;100.00;101237.00;4997126;28;20023;-45
2023/10/23 01:20:51;;;;;;;8.45;5.28;;;;;;;8.97;100.00;101230.72;5002892;28;20042;-46
2023/10/23 01:23:16;;;;;;;8.43;5.15;;;;;;;8.97;100.00;101233.38;4996665;28;20030;-45
2023/10/23 01:25:41;;;;;;;8.73;5.28;;;;;;;8.97;100.00;101233.38;4994370;28;20037;-46
2023/10/23 01:28:07;;;;;;;6.97;5.03;;;;;;;8.98;100.00;101242.19;4999356;28;20022;-45
2023/10/23 01:30:33;;;;;;;9.40;5.55;;;;;;;8.96;100.00;101231.69;4995843;28;20029;-45
2023/10/23 01:32:58;;;;;;;7.90;5.13;;;;;;;8.95;100.00;101229.97;4997969;28;20121;-45
2023/10/23 01:35:24;;;;;;;11.23;5.07;;;;;;;8.95;100.00;101229.97;4995395;28;20027;-45
2023/10/23 01:37:49;;;;;;;7.47;4.95;;;;;;;8.95;100.00;101231.78;5001235;28;20490;-45
2023/10/23 01:40:15;;;;;;;5.20;4.70;;;;;;;8.92;100.00;101226.69;4998180;28;20069;-45
2023/10/23 01:42:41;;;;;;;9.30;5.22;;;;;;;8.91;100.00;101223.19;5009171;28;20491;-46
2023/10/23 01:45:07;;;;;;;5.80;5.20;;;;;;;8.94;100.00;101224.78;5001027;28;20030;-46
2023/10/23 01:47:32;;;;;;;9.45;5.10;;;;;;;8.91;100.00;101227.59;4997099;28;20504;-45
2023/10/23 01:49:58;;;;;;;6.63;5.15;;;;;;;8.89;100.00;101225.94;4996005;28;20072;-46
2023/10/23 01:52:23;;;;;;;11.32;5.30;;;;;;;8.91;100.00;101230.25;4998454;28;20473;-45
2023/10/23 01:54:52;;;;;;;7.82;4.97;;;;;;;8.85;100.00;101221.75;4994083;28;20030;-46
2023/10/23 01:57:18;;;;;;;10.23;4.97;;;;;;;8.84;100.00;101220.06;4997862;28;20499;-46
2023/10/23 01:59:43;;;;;;;8.27;4.93;;;;;;;8.85;100.00;101223.56;4995730;28;20030;-46
2023/10/23 02:02:09;;;;;;;11.43;4.90;;;;;;;8.81;100.00;101219.38;5002048;28;20098;-46
2023/10/23 02:04:35;;;;;;;9.38;5.45;;;;;;;8.80;100.00;101217.72;5000546;28;20422;-47
2023/10/23 02:07:00;;;;;;;7.72;5.00;;;;;;;8.78;100.00;101222.25;4999932;28;20030;-47
2023/10/23 02:09:26;;;;;;;11.45;4.93;;;;;;;8.77;100.00;101225.84;4995121;28;20019;-45
2023/10/23 02:11:51;;;;;;;10.23;5.22;;;;;;;8.75;100.00;101228.59;4999512;28;20057;-45
2023/10/23 02:14:16;;;;;;;7.32;5.15;;;;;;;8.74;100.00;101236.63;4996261;28;20030;-46
2023/10/23 02:16:42;;;;;;;5.68;5.05;;;;;;;8.72;100.00;101228.78;4995427;28;20055;-45
2023/10/23 02:19:08;;;;;;;8.85;4.78;;;;;;;8.70;100.00;101242.09;4995230;28;20107;-47
2023/10/23 02:21:34;;;;;;;7.60;4.95;;;;;;;8.69;100.00;101243.06;5002719;28;20029;-46
2023/10/23 02:23:59;;;;;;;11.00;5.28;;;;;;;8.66;100.00;101247.69;4992652;28;20500;-45
2023/10/23 02:26:25;;;;;;;7.53;5.25;;;;;;;8.63;100.00;101246.09;4994452;28;20034;-46
2023/10/23 02:28:50;;;;;;;7.57;5.10;;;;;;;8.63;100.00;101258.50;4997161;28;20026;-45
2023/10/23 02:31:16;;;;;;;8.95;5.35;;;;;;;8.62;100.00;101257.63;4994731;28;20468;-46
2023/10/23 02:33:41;;;;;;;6.95;4.80;;;;;;;8.60;100.00;101251.56;4996123;28;20034;-46
2023/10/23 02:36:07;;;;;;;8.82;5.00;;;;;;;8.57;100.00;101254.41;4999108;28;20430;-46
2023/10/23 02:38:32;;;;;;;8.25;4.85;;;;;;;8.55;100.00;101256.31;4996763;28;20103;-46
2023/10/23 02:40:58;;;;;;;9.45;5.03;;;;;;;8.53;100.00;101250.25;5001073;28;20482;-45
2023/10/23 02:43:23;;;;;;;7.70;5.15;;;;;;;8.53;100.00;101258.19;4997364;28;20365;-48
2023/10/23 02:45:48;;;;;;;7.15;5.20;;;;;;;8.51;100.00;101252.16;5000939;28;20137;-47
2023/10/23 02:48:15;;;;;;;9.38;5.38;;;;;;;8.47;100.00;101248.81;5001953;28;20113;-47
2023/10/23 02:50:40;;;;;;;6.10;4.65;;;;;;;8.49;100.00;101248.72;5000523;28;20176;-47
2023/10/23 02:53:08;;;;;;;6.50;4.97;;;;;;;8.45;100.00;101249.88;5001711;28;20516;-47
2023/10/23 02:55:33;;;;;;;8.18;4.78;;;;;;;8.43;100.00;101257.06;5001414;28;20033;-48
2023/10/23 02:57:59;;;;;;;6.05;4.70;;;;;;;8.41;100.00;101258.91;4998359;28;20026;-47
2023/10/23 03:00:25;;;;;;;9.38;5.03;;;;;;;8.40;100.00;101259.88;5001699;28;20041;-47
2023/10/23 03:02:50;;;;;;;5.93;5.00;;;;;;;8.36;100.00;101251.25;4995516;28;20039;-48
2023/10/23 03:05:16;;;;;;;9.68;4.97;;;;;;;8.32;100.00;101252.38;5007433;28;20029;-47
2023/10/23 03:07:42;;;;;;;8.02;5.32;;;;;;;8.28;100.00;101248.22;4997365;28;20034;-47
2023/10/23 03:10:08;;;;;;;7.25;5.10;;;;;;;8.27;100.00;101252.66;5004762;28;20032;-47
2023/10/23 03:12:34;;;;;;;8.00;5.25;;;;;;;8.24;100.00;101258.13;4996078;28;20083;-47
2023/10/23 03:15:02;;;;;;;7.38;5.13;;;;;;;8.20;100.00;101251.31;5002154;28;20032;-47
2023/10/23 03:17:27;;;;;;;8.13;5.15;;;;;;;8.21;100.00;101252.16;5001230;28;20498;-49
2023/10/23 03:19:52;;;;;;;8.23;5.60;;;;;;;8.18;100.00;101260.28;5002003;28;20058;-47
2023/10/23 03:22:17;;;;;;;7.50;4.93;;;;;;;8.14;100.00;101254.34;4999963;28;20042;-47
2023/10/23 03:24:43;;;;;;;9.13;5.22;;;;;;;8.12;100.00;101259.72;4999831;28;20029;-47
2023/10/23 03:27:08;;;;;;;10.88;5.20;;;;;;;8.09;100.00;101253.75;4997803;28;20344;-47
2023/10/23 03:29:33;;;;;;;7.88;4.80;;;;;;;8.07;100.00;101258.28;4999802;28;20383;-48
2023/10/23 03:31:58;;;;;;;11.10;5.13;;;;;;;8.03;100.00;101254.16;5000685;28;20033;-47
2023/10/23 03:34:25;;;;;;;9.23;4.88;;;;;;;7.99;100.00;101247.31;5001246;28;20391;-47
2023/10/23 03:36:51;;;;;;;6.88;5.20;;;;;;;7.95;100.00;101252.78;4997582;28;20113;-46
2023/10/23 03:39:16;;;;;;;10.43;5.13;;;;;;;7.95;100.00;101257.22;5001252;28;20212;-46
2023/10/23 03:41:42;;;;;;;7.82;5.43;;;;;;;7.92;100.00;101254.75;5000338;28;20022;-49
2023/10/23 03:44:08;;;;;;;8.27;5.38;;;;;;;7.89;100.00;101261.09;5002554;28;20545;-49
2023/10/23 03:46:33;;;;;;;8.93;5.13;;;;;;;7.89;100.00;101263.75;4994241;28;20042;-49
2023/10/23 03:48:58;;;;;;;10.55;5.18;;;;;;;7.87;100.00;101272.69;5017484;28;20026;-49
2023/10/23 03:51:25;;;;;;;8.65;5.60;;;;;;;7.85;100.00;101259.56;5000127;28;20137;-49
2023/10/23 03:53:50;;;;;;;5.55;5.03;;;;;;;7.87;100.00;101260.31;5000241;28;20097;-49
2023/10/23 03:56:15;;;;;;;11.75;6.00;;;;;;;7.83;100.00;101266.75;4996000;28;20480;-50
2023/10/23 03:58:43;;;;;;;10.63;5.60;;;;;;;7.79;100.00;101262.56;4997198;28;20472;-50
2023/10/23 04:01:08;;;;;;;6.15;5.03;;;;;;;7.76;100.00;101266.25;4997359;28;20482;-49
2023/10/23 04:03:34;;;;;;;10.15;5.70;;;;;;;7.75;100.00;101266.34;4998902;28;20073;-49
2023/10/23 04:06:02;;;;;;;8.73;5.35;;;;;;;7.71;100.00;101270.94;4998686;28;20062;-48
2023/10/23 04:08:27;;;;;;;7.93;5.00;;;;;;;7.68;100.00;101267.63;5000330;28;20079;-49
2023/10/23 04:10:52;;;;;;;6.85;4.53;;;;;;;7.67;100.00;101268.56;4994681;28;20449;-49
2023/10/23 04:13:17;;;;;;;7.60;4.80;;;;;;;7.63;100.00;101273.19;5001124;28;20029;-49
2023/10/23 04:15:54;;;;;;;8.30;4.80;;;;;;;7.59;100.00;101266.34;4999159;28;20030;-48
2023/10/23 04:18:19;;;;;;;10.48;4.97;;;;;;;7.55;100.00;101267.47;5001478;28;20038;-49
2023/10/23 04:20:44;;;;;;;9.98;4.97;;;;;;;7.51;100.00;101266.81;4997638;28;20031;-49
2023/10/23 04:23:10;;;;;;;8.50;4.88;;;;;;;7.47;100.00;101265.25;4998132;28;20026;-50
2023/10/23 04:25:35;;;;;;;8.27;4.90;;;;;;;7.45;100.00;101275.06;4998513;28;20062;-49
2023/10/23 04:28:00;;;;;;;7.90;5.00;;;;;;;7.40;100.00;101274.50;4997086;28;20030;-49
2023/10/23 04:30:26;;;;;;;8.77;5.13;;;;;;;7.39;100.00;101270.13;4997564;28;20027;-49
2023/10/23 04:32:51;;;;;;;8.00;4.93;;;;;;;7.36;100.00;101271.16;4997895;28;20040;-49
2023/10/23 04:35:16;;;;;;;11.20;4.75;;;;;;;7.33;100.00;101276.63;5001646;28;20037;-49
2023/10/23 04:37:41;;;;;;;5.90;4.53;;;;;;;7.29;100.00;101269.78;4995808;28;20030;-49
2023/10/23 04:40:07;;;;;;;10.07;5.35;;;;;;;7.26;100.00;101287.59;5001429;28;20061;-48
2023/10/23 04:42:33;;;;;;;8.57;5.25;;;;;;;7.19;100.00;101281.81;5003337;28;20094;-49
2023/10/23 04:44:58;;;;;;;8.25;4.80;;;;;;;7.19;100.00;101276.53;4998853;28;20029;-49
2023/10/23 04:47:23;;;;;;;6.50;4.60;;;;;;;7.16;100.00;101274.94;4998563;28;20503;-48
2023/10/23 04:49:48;;;;;;;6.40;4.40;;;;;;;7.15;100.00;101278.50;4997887;28;20037;-48
2023/10/23 04:52:14;;;;;;;6.60;5.10;;;;;;;7.14;100.00;101276.78;5005108;28;20030;-48
2023/10/23 04:54:39;;;;;;;6.38;4.68;;;;;;;7.12;100.00;101272.53;5000569;28;20353;-48
2023/10/23 04:57:04;;;;;;;5.40;4.85;;;;;;;7.09;100.00;101272.69;4998955;28;20036;-48
2023/10/23 04:59:33;;;;;;;4.88;4.30;;;;;;;7.07;100.00;101274.56;5004481;28;20030;-49
2023/10/23 05:01:58;;;;;;;7.47;4.60;;;;;;;7.06;100.00;101265.81;5000331;28;20034;-49
2023/10/23 05:04:24;;;;;;;6.82;4.70;;;;;;;7.05;100.00;101266.72;4997295;28;20033;-49
2023/10/23 05:06:49;;;;;;;6.95;4.97;;;;;;;7.02;100.00;101266.91;5007100;28;20087;-49
2023/10/23 05:09:15;;;;;;;6.32;4.53;;;;;;;7.00;100.00;101268.78;4998278;28;20058;-48
2023/10/23 05:11:40;;;;;;;5.43;4.30;;;;;;;6.98;100.00;101273.28;4999843;28;20472;-48
2023/10/23 05:14:06;;;;;;;8.32;4.45;;;;;;;6.96;100.00;101267.22;4997614;28;20026;-49
2023/10/23 05:16:31;;;;;;;5.68;4.43;;;;;;;6.93;100.00;101270.91;5003393;28;20030;-48
2023/10/23 05:18:56;;;;;;;9.60;4.40;;;;;;;6.90;100.00;101264.94;4993779;28;20026;-49
2023/10/23 05:21:22;;;;;;;8.30;4.50;;;;;;;6.89;100.00;101264.06;4998802;28;20394;-49
2023/10/23 05:23:47;;;;;;;7.65;4.20;;;;;;;6.87;100.00;101265.09;4998963;28;20030;-49
2023/10/23 05:26:14;;;;;;;9.98;4.57;;;;;;;6.82;100.00;101266.19;4993955;28;20048;-49
2023/10/23 05:28:40;;;;;;;4.43;4.05;;;;;;;6.81;100.00;101261.84;4997206;28;20018;-49
2023/10/23 05:31:06;;;;;;;6.03;4.63;;;;;;;6.80;100.00;101259.31;4996179;28;20022;-49
2023/10/23 05:33:32;;;;;;;4.90;3.95;;;;;;;6.78;100.00;101266.47;5004275;28;20030;-48
2023/10/23 05:36:09;;;;;;;7.22;4.53;;;;;;;6.76;100.00;101261.25;4998873;28;20033;-50
2023/10/23 05:38:36;;;;;;;7.75;4.70;;;;;;;6.73;100.00;101261.41;4997710;28;20030;-46
2023/10/23 05:41:02;;;;;;;6.45;4.40;;;;;;;6.72;100.00;101261.50;4998931;28;20036;-48
2023/10/23 05:43:28;;;;;;;5.78;4.15;;;;;;;6.70;100.00;101269.50;4997882;28;20105;-48
2023/10/23 05:45:57;;;;;;;5.65;4.07;;;;;;;6.67;100.00;101267.88;4998198;28;20053;-48
2023/10/23 05:48:22;;;;;;;11.52;4.93;;;;;;;6.67;100.00;101264.38;4999827;28;20027;-47
2023/10/23 05:51:01;;;;;;;7.22;4.60;;;;;;;6.68;100.00;101266.09;5006600;28;20030;-48
2023/10/23 05:53:27;;;;;;;8.25;4.70;;;;;;;6.65;100.00;101271.53;4995050;28;20034;-48
2023/10/23 05:55:53;;;;;;;9.88;4.85;;;;;;;6.64;100.00;101264.53;4994208;28;20025;-48
2023/10/23 05:58:19;;;;;;;8.15;5.03;;;;;;;6.60;100.00;101268.28;4996135;28;20381;-48
2023/10/23 06:00:44;;;;;;;6.03;4.53;;;;;;;6.60;100.00;101271.78;5005231;28;20522;-47
2023/10/23 06:03:10;;;;;;;7.72;4.60;;;;;;;6.61;100.00;101264.69;5009158;28;20092;-48
2023/10/23 06:05:42;;;;;;;5.43;4.00;;;;;;;6.59;100.00;101263.94;4992170;28;20034;-48
2023/10/23 06:08:08;;;;;;;5.70;4.65;;;;;;;6.54;100.00;101260.69;4994040;28;20156;-48
2023/10/23 06:10:39;;;;;;;9.75;4.93;;;;;;;6.52;100.00;101263.41;4990447;28;20439;-48
2023/10/23 06:13:05;;;;;;;10.07;4.97;;;;;;;6.47;100.00;101266.28;4997613;28;20026;-47
2023/10/23 06:15:32;;;;;;;7.78;5.20;;;;;;;6.43;100.00;101266.56;4999622;28;20049;-47
2023/10/23 06:17:57;;;;;;;8.52;4.72;;;;;;;6.36;100.00;101266.03;5000166;28;20116;-47
2023/10/23 06:20:22;;;;;;;7.32;4.80;;;;;;;6.36;100.00;101266.03;4998830;28;20553;-47
2023/10/23 06:22:48;;;;;;;8.45;5.10;;;;;;;6.35;100.00;101271.38;5004304;28;20440;-47
2023/10/23 06:25:13;;;;;;;7.93;4.97;;;;;;;6.34;100.00;101264.38;5005132;28;20026;-47
2023/10/23 06:27:38;;;;;;;9.27;4.93;;;;;;;6.31;100.00;101265.38;4998563;28;20482;-47
2023/10/23 06:30:04;;;;;;;8.63;5.20;;;;;;;6.32;100.00;101268.88;4997647;28;20300;-46
2023/10/23 06:32:33;;;;;;;8.32;4.90;;;;;;;6.30;100.00;101271.59;4996308;28;20045;-47
2023/10/23 06:34:58;;;;;;;11.82;5.00;;;;;;;6.28;100.00;101269.03;4997619;28;20034;-48
2023/10/23 06:37:24;;;;;;;7.85;5.38;;;;;;;6.28;100.00;101269.03;4999969;28;20093;-47
2023/10/23 06:39:49;;;;;;;8.85;5.05;;;;;;;6.27;100.00;101266.47;4996874;28;20030;-47
2023/10/23 06:42:14;;;;;;;8.98;5.50;;;;;;;6.26;100.00;101270.91;4991955;28;20038;-48
2023/10/23 06:44:39;;;;;;;10.00;5.35;;;;;;;6.26;100.00;101270.91;4996857;28;20034;-47
2023/10/23 06:47:05;;;;;;;8.35;5.30;;;;;;;6.27;100.00;101271.75;5002770;28;20054;-48
2023/10/23 06:49:30;;;;;;;19.88;5.43;;;;;;;6.27;100.00;101269.97;4996379;28;20316;-47
2023/10/23 06:51:55;;;;;;;9.63;5.35;;;;;;;6.28;100.00;101266.41;4996646;28;20144;-47
2023/10/23 06:54:22;;;;;;;8.98;5.07;;;;;;;6.29;100.00;101264.59;4995485;28;20034;-47
2023/10/23 06:56:47;;;;;;;10.30;5.60;;;;;;;6.30;100.00;101272.44;4996704;28;20033;-48
2023/10/23 06:59:13;;;;;;;10.05;5.05;;;;;;;6.31;100.00;101268.00;4997188;28;20026;-47
2023/10/23 07:01:38;;;;;;;15.77;5.78;;;;;;;6.34;100.00;101264.38;4995190;28;20033;-49
2023/10/23 07:04:03;;;;;;;13.88;6.70;;;;;;;6.35;100.00;101259.03;4998999;28;20033;-47
2023/10/23 07:06:28;;;;;;;12.27;5.88;;;;;;;6.39;100.00;101267.63;5001854;28;20026;-47
2023/10/23 07:08:54;;;;;;;9.25;5.50;;;;;;;6.41;100.00;101261.34;4998106;28;20155;-48
2023/10/23 07:11:19;;;;;;;8.30;5.70;;;;;;;6.43;100.00;101264.75;4995113;28;20369;-48
2023/10/23 07:13:44;;;;;;;10.93;5.55;;;;;;;6.46;100.00;101263.72;4996952;28;20102;-47
2023/10/23 07:16:10;;;;;;;9.45;5.78;;;;;;;6.50;100.00;101261.81;4995406;28;20391;-48
2023/10/23 07:18:35;;;;;;;12.07;6.90;;;;;;;6.54;100.00;101258.91;4995333;28;20057;-47
2023/10/23 07:21:00;;;;;;;8.25;5.93;;;;;;;6.61;100.00;101262.06;4993266;28;20120;-48
2023/10/23 07:23:28;;;;;;;11.27;6.32;;;;;;;6.66;100.00;101254.75;4994357;28;20095;-48
2023/10/23 07:26:20;;;;;;;13.30;7.18;;;;;;;6.71;100.00;101255.38;4993043;28;20060;-48
2023/10/23 07:28:45;;;;;;;9.90;6.45;;;;;;;6.77;100.00;101260.31;5013789;28;20089;-47
2023/10/23 07:31:13;;;;;;;11.57;7.03;;;;;;;6.85;100.00;101263.38;4996673;28;20174;-48
2023/10/23 07:33:38;;;;;;;14.88;7.53;;;;;;;6.93;100.00;101264.75;4997244;28;20030;-47
2023/10/23 07:36:05;;;;;;;16.85;8.13;;;;;;;7.00;100.00;101264.34;4998111;28;20105;-47
2023/10/23 07:38:31;;;;;;;16.25;8.55;;;;;;;7.09;100.00;101270.91;4999081;28;20041;-48
2023/10/23 07:40:57;;;;;;;16.25;8.77;;;;;;;7.19;100.00;101271.25;4996525;28;20393;-48
2023/10/23 07:43:26;;;;;;;15.27;8.73;;;;;;;7.28;100.00;101268.09;4996574;28;20026;-47
2023/10/23 07:45:52;;;;;;;13.43;8.18;;;;;;;7.36;100.00;101270.28;5000246;28;20408;-48
2023/10/23 07:48:17;;;;;;;13.00;8.20;;;;;;;7.44;100.00;101272.50;4995776;28;20041;-47
2023/10/23 07:50:43;;;;;;;14.80;8.80;;;;;;;7.52;100.00;101272.94;4994659;28;20455;-47
2023/10/23 07:53:08;;;;;;;14.82;8.65;;;;;;;7.58;100.00;101270.78;4998296;28;20034;-47
2023/10/23 07:55:33;;;;;;;16.10;9.00;;;;;;;7.66;100.00;101277.41;4995288;28;20030;-47
2023/10/23 07:57:59;;;;;;;16.35;8.75;;;;;;;7.74;100.00;101278.72;5000185;28;20409;-47
2023/10/23 08:00:27;;;;;;;14.95;9.20;;;;;;;7.82;100.00;101272.97;4995750;28;20034;-47
2023/10/23 08:02:52;;;;;;;16.98;9.38;;;;;;;7.91;100.00;101264.50;4995461;28;20536;-47
2023/10/23 08:05:18;;;;;;;16.95;9.10;;;;;;;8.02;100.00;101260.38;4990577;28;20128;-47
2023/10/23 08:07:43;;;;;;;19.60;9.77;;;;;;;8.12;100.00;101256.22;5001630;28;20044;-47
2023/10/23 08:10:08;;;;;;;16.27;9.52;;;;;;;8.21;100.00;101258.34;4997970;28;20026;-47
2023/10/23 08:12:34;;;;;;;20.63;9.45;;;;;;;8.30;100.00;101259.56;4996903;28;20460;-48
2023/10/23 08:14:59;;;;;;;16.67;9.35;;;;;;;8.38;100.00;101248.53;4991806;28;20366;-47
2023/10/23 08:17:24;;;;;;;15.20;9.52;;;;;;;8.45;100.00;101255.16;4997889;28;20027;-47
2023/10/23 08:19:49;;;;;;;16.33;9.05;;;;;;;8.55;100.00;101250.16;4996490;28;20030;-48
2023/10/23 08:22:15;;;;;;;18.67;9.52;;;;;;;8.63;100.00;101255.84;4999210;28;20026;-48
2023/10/23 08:24:40;;;;;;;14.50;8.70;;;;;;;8.68;100.00;101254.59;5002722;28;20030;-48
2023/10/23 08:27:06;;;;;;;15.73;9.00;;;;;;;8.77;100.00;101247.88;4973097;28;20468;-48
2023/10/23 08:29:31;;;;;;;15.73;8.73;;;;;;;8.85;100.00;101253.53;4994400;28;20022;-47
2023/10/23 08:31:57;;;;;;;16.13;9.32;;;;;;;8.93;100.00;101258.38;4995612;28;20022;-47
2023/10/23 08:34:22;;;;;;;17.70;9.10;;;;;;;9.01;100.00;101260.50;4998980;28;20066;-47
2023/10/23 08:36:48;;;;;;;15.98;9.10;;;;;;;9.09;100.00;101263.53;4998739;28;20033;-47
2023/10/23 08:39:13;;;;;;;18.25;9.40;;;;;;;9.16;100.00;101256.91;4998207;28;20022;-47
2023/10/23 08:41:39;;;;;;;19.95;8.88;;;;;;;9.24;100.00;101264.34;4998880;28;20041;-48
2023/10/23 08:44:04;;;;;;;14.07;8.43;;;;;;;9.34;100.00;101261.97;4993939;28;20038;-48
2023/10/23 08:46:31;;;;;;;15.90;8.43;;;;;;;9.41;100.00;101264.13;5001057;28;20048;-48
2023/10/23 08:48:57;;;;;;;14.27;8.18;;;;;;;9.51;100.00;101260.84;4994622;28;20469;-47
2023/10/23 08:51:23;;;;;;;16.02;8.07;;;;;;;9.59;100.00;101256.78;4994380;28;20040;-48
2023/10/23 08:53:50;;;;;;;14.23;7.18;;;;;;;9.65;100.00;101260.81;4996306;28;20015;-48
2023/10/23 08:56:16;;;;;;;16.67;7.57;;;;;;;9.78;100.00;101255.56;4996156;28;20042;-48
2023/10/23 08:58:45;;;;;;;18.20;7.40;;;;;;;9.87;100.00;101244.31;4994310;28;20116;-48
2023/10/23 09:01:11;;;;;;;13.43;7.45;;;;;;;10.01;100.00;101254.00;4991755;28;20080;-48
2023/10/23 09:03:36;;;;;;;17.48;7.95;;;;;;;10.12;100.00;101248.81;4994283;28;20023;-48
2023/10/23 09:06:01;;;;;;;15.80;6.25;;;;;;;10.23;100.00;101252.53;4992402;28;20030;-49
2023/10/23 09:08:28;;;;;;;16.75;7.55;;;;;;;10.36;100.00;101248.97;4994136;28;20026;-48
2023/10/23 09:11:03;;;;;;;14.18;6.22;;;;;;;10.50;100.00;101245.34;5004206;28;20416;-49
2023/10/23 09:13:33;;;;;;;16.75;6.28;;;;;;;10.59;100.00;101240.34;4998441;28;20037;-47
2023/10/23 09:15:59;;;;;;;12.88;6.63;;;;;;;10.69;100.00;101242.25;4992191;28;20440;-48
2023/10/23 09:18:24;;;;;;;12.70;6.72;;;;;;;10.79;100.00;101236.28;4995283;28;20037;-49
2023/10/23 09:20:50;;;;;;;13.00;6.75;;;;;;;10.89;100.00;101234.66;4994578;28;20263;-48
2023/10/23 09:23:15;;;;;;;18.20;6.43;;;;;;;11.01;100.00;101230.28;4993482;28;20079;-49
2023/10/23 09:25:42;;;;;;;16.90;6.10;;;;;;;11.11;100.00;101226.00;4988966;28;20038;-47
2023/10/23 09:28:11;;;;;;;11.05;6.07;;;;;;;11.22;100.00;101227.84;4993517;28;20059;-48
2023/10/23 09:30:37;;;;;;;12.15;5.40;;;;;;;11.30;100.00;101220.16;4989319;28;20035;-47
2023/10/23 09:33:05;;;;;;;16.52;5.63;;;;;;;11.38;100.00;101222.28;4993736;28;20062;-48
2023/10/23 09:35:31;;;;;;;14.27;5.53;;;;;;;11.42;100.00;101221.06;4988227;28;20035;-48
2023/10/23 09:37:56;;;;;;;12.85;5.43;;;;;;;11.49;100.00;101219.66;5000652;28;20022;-48
2023/10/23 09:40:22;;;;;;;11.40;5.35;;;;;;;11.57;100.00;101217.25;4991074;28;20034;-47
2023/10/23 09:42:47;;;;;;;13.82;5.60;;;;;;;11.64;100.00;101207.88;4998018;28;20037;-48
2023/10/23 09:45:15;;;;;;;14.02;5.28;;;;;;;11.72;100.00;101209.09;4993915;28;20038;-49
2023/10/23 09:47:40;;;;;;;11.05;5.45;;;;;;;11.78;100.00;101213.97;4991657;28;20300;-48
2023/10/23 09:50:06;;;;;;;10.70;5.07;;;;;;;11.81;100.00;101209.25;4997045;28;20034;-48
2023/10/23 09:52:34;;;;;;;12.50;4.88;;;;;;;11.87;100.00;101221.22;4998659;28;20038;-47
2023/10/23 09:55:04;;;;;;;13.38;4.63;;;;;;;11.91;100.00;101216.53;4996641;28;20041;-47
2023/10/23 09:57:37;;;;;;;12.05;5.13;;;;;;;12.03;100.00;101220.94;4998678;28;20022;-48
2023/10/23 10:00:13;;;;;;;11.65;5.25;;;;;;;12.14;100.00;101217.44;4994271;28;20041;-47
2023/10/23 10:02:40;;;;;;;12.45;4.93;;;;;;;12.21;100.00;101213.38;5019537;28;20034;-47
2023/10/23 10:05:08;;;;;;;16.50;4.55;;;;;;;12.22;100.00;101212.38;4994773;28;20030;-47
2023/10/23 10:07:49;;;;;;;8.52;4.35;;;;;;;12.26;100.00;101219.19;4995630;28;20376;-48
2023/10/23 10:10:16;;;;;;;14.32;4.70;;;;;;;12.30;100.00;101217.13;4992230;28;20116;-48
2023/10/23 10:12:42;;;;;;;8.50;4.35;;;;;;;12.33;100.00;101209.72;5002751;28;20034;-47
2023/10/23 10:15:11;;;;;;;16.83;4.35;;;;;;;12.38;100.00;101210.22;5000046;28;20465;-47
2023/10/23 10:17:37;;;;;;;;;;;;;;;12.50;100.00;101205.72;4997078;28;20029;-47
2023/10/23 10:20:03;;;;;;;16.58;4.18;;;;;;;12.47;100.00;101200.66;4994482;28;20379;-47
2023/10/23 10:22:35;;;;;;;14.40;4.63;;;;;;;12.55;100.00;101202.72;4996243;28;20034;-47
2023/10/23 10:25:03;;;;;;;12.38;4.43;;;;;;;12.59;100.00;101199.69;4996438;28;20033;-47
2023/10/23 10:27:29;;;;;;;9.50;4.13;;;;;;;12.65;100.00;101198.34;4997492;28;20065;-47
2023/10/23 10:29:54;;;;;;;16.05;4.68;;;;;;;12.70;100.00;101190.81;4997946;28;20191;-48
2023/10/23 10:32:23;;;;;;;10.95;4.03;;;;;;;12.71;100.00;101191.69;4992254;28;20037;-48
2023/10/23 10:34:52;;;;;;;14.25;4.60;;;;;;;12.74;100.00;101192.28;4984748;28;20028;-48
2023/10/23 10:37:17;;;;;;;15.65;4.78;;;;;;;12.77;100.00;101183.19;5003346;28;20531;-47
2023/10/23 10:39:52;;;;;;;10.50;4.25;;;;;;;12.83;100.00;101185.38;4993465;28;20030;-48
2023/10/23 10:42:19;;;;;;;12.68;4.35;;;;;;;12.84;100.00;101180.88;4994357;28;20035;-47
2023/10/23 10:45:02;;;;;;;13.77;4.32;;;;;;;12.89;100.00;101182.22;4996489;28;20026;-48
2023/10/23 10:47:39;;;;;;;12.45;4.28;;;;;;;12.90;100.00;101167.88;4994809;28;20043;-47
2023/10/23 10:50:05;;;;;;;12.45;4.57;;;;;;;12.95;100.00;101173.69;4997419;28;20027;-48
2023/10/23 10:52:35;;;;;;;18.75;4.95;;;;;;;13.01;100.00;101164.38;4991606;28;20105;-47
2023/10/23 10:55:05;;;;;;;13.25;4.78;;;;;;;13.06;100.00;101150.66;4997594;28;20071;-48
2023/10/23 10:57:31;;;;;;;15.90;5.10;;;;;;;13.11;100.00;101149.28;4994821;28;20030;-48
2023/10/23 11:00:00;;;;;;;13.52;5.38;;;;;;;13.16;100.00;101150.75;4999520;28;20022;-48
2023/10/23 11:02:26;;;;;;;13.15;5.38;;;;;;;13.19;100.00;101145.13;4997967;28;20037;-48
2023/10/23 11:04:51;;;;;;;14.13;4.90;;;;;;;13.22;100.00;101127.09;4999658;28;20026;-47
2023/10/23 11:07:22;;;;;;;11.80;5.03;;;;;;;13.26;100.00;101125.00;4999322;28;20477;-47
2023/10/23 11:09:48;;;;;;;11.18;4.93;;;;;;;13.27;100.00;101113.34;4994668;28;20115;-47
2023/10/23 11:12:13;;;;;;;14.10;4.53;;;;;;;13.30;100.00;101115.75;4997864;28;20424;-47
2023/10/23 11:14:38;;;;;;;15.10;4.55;;;;;;;13.35;100.00;101116.25;4994690;28;20376;-48